Ne plus se rappeler de moi
Bonjour et Bienvenue
Pas de session ouverte
Mardi 21/10/2014
d:\inetpub\wwwroot\acrroussillon\reservation\ACR\IMAGES\IMG1.JPGd:\inetpub\wwwroot\acrroussillon\reservation\ACR\IMAGES\IMG2.JPGd:\inetpub\wwwroot\acrroussillon\reservation\ACR/IMAGES/IMG3.jpg
00:00:00
Horaires du 21/10/2014 (Données à titre indicatif seulement).
Lever du soleil : 08h09 - Coucher du soleil : 18h57 (Heure Locale)
Jour aéronautique : 07h39 - Nuit aéronautique : 19h27 (Heure Locale)
Planning des réservations des aéronefs
Planning des réservations des aéronefs
2014/10/21 02:00
LFMP 210200Z AUTO 30009KT 9999 NSC 19/14 Q1018
Planning des réservations des aéronefs
2014/10/20 18:15
TAF LFMP 201700Z 2018/2118 11004KT CAVOK
BECMG 2103/2106 30015KT
BECMG 2115/2118 30020G45KT
Informations sur les aéronefs
Informations sur les aéronefs
Modifications des Types de vols
ATTENTION PLUS DE PAIEMENT EN LIGNE DEPUIS LA MAISON
AEROCLUB DU ROUSSILLON. AVENUE MAURICE BELLONTE. 66000 PERPIGNAN. Tel : 04.68.73.48.18 Fax : 09.55.16.18.97 Courriel : aeroclub-roussillon@hotmail.fr
 METAR / TAF
LIENS UTILES
envoyer un e-mail
d:\inetpub\wwwroot\acrroussillon\reservation\ACR/IMAGES/Logo.jpg
Identifiez vous pour interaction
d:\inetpub\wwwroot\acrroussillon\reservation\ACR/IMAGES/Logo.jpg
Aéro-Club du Roussillon